Tiempo atmosférico en la estación meteorológica de Almazul, Soria (1000 m.)



Fecha
DESCASC
Temp. máxima en grados centígrados (hora)
DESCASC
Temp. mínima en grados centígrados (hora)
DESCASC
Temp. media en grados centígrados
DESCASC
Racha de viento máxima en m/sg (hora)
DESCASC
Velocidad máxima media en intervalos de 10 minutos(hora)
DESCASC
Precipitaciones diarias en mm
DESCASC
Precipitaciones de 00:00 a 06:00 en mm
DESCASC
Precipitaciones de 06:00 a 12:00 en mm
DESCASC
Precipitaciones de 12:00 a 18:00 en mm
DESCASC
Precipitaciones de 18:00 a 24:00 en mm
DESCASC
26-11-2020 9 (12:20) 4.6 (08:00) 6.8 13.89 (21:20) 10 (21:10) 0.8 0 0 0.8 0
25-11-2020 9.6 (14:50) 0.3 (03:50) 5 10.28 (19:00) 7.78 (19:10) 0 0 0 0 0
24-11-2020 13.8 (14:00) -1.1 (07:50) 6.4 6.39 (14:20) 3.89 (14:20) 0 0 0 0 0
23-11-2020 15.8 (14:10) -2.8 (07:20) 6.5 4.72 (17:50) 3.61 (18:00) 0 0 0 0 0
22-11-2020 15.8 (16:20) -2.1 (-00:0) 6.9 4.44 (12:50) 3.06 (12:50) 0 0 0 0 0
21-11-2020 14.3 (15:40) -0.7 (-00:0) 6.8 9.44 (04:40) 7.22 (01:50) 0 0 0 0 0
20-11-2020 10.6 (14:40) 3.4 (00:00) 7 18.89 (09:30) 13.61 (08:10) 0 0 0 0 0
19-11-2020 15.8 (15:00) 3.8 (00:00) 9.8 16.67 (23:59) 12.5 (23:59) 0 0 0 0 0
18-11-2020 18.7 (14:50) 2 (00:00) 10.4 8.61 (16:10) 6.39 (16:10) 0 0 0 0 0
17-11-2020 19.3 (15:20) 1.3 (00:00) 10.3 5.28 (02:40) 4.44 (02:30) 0 0 0 0 0
16-11-2020 16.2 (14:50) 4.9 (00:00) 10.6 10.28 (01:40) 6.67 (02:00) 0 0 0 0 0
15-11-2020 15.4 (13:40) 7.6 (00:00) 11.5 11.11 (14:20) 8.89 (14:10) 0.4 0 0 0.4 0
14-11-2020 12.1 (13:00) 4.4 (00:00) 8.3 6.67 (13:20) 5 (13:30) 0.4 0 0 0.2 0.2
13-11-2020 15.7 (14:40) 5.2 (00:00) 10.4 6.94 (15:30) 5 (15:50) 0 0 0 0 0
12-11-2020 16.7 (15:50) 3.7 (00:00) 10.2 4.72 (16:20) 3.33 (16:20) 0 0 0 0 0
11-11-2020 15.3 (15:40) 0.5 (00:00) 7.9 8.89 (14:40) 6.67 (15:20) 0 0 0 0 0
10-11-2020 15.9 (15:50) 1.4 (00:00) 8.6 5 (14:30) 3.33 (04:40) 0 0 0 0 0
09-11-2020 15 (15:10) 3.5 (00:00) 9.3 6.67 (16:30) 3.89 (15:50) 0.2 0 0.2 0 0
08-11-2020 14.9 (15:30) 5 (00:00) 9.9 8.89 (17:20) 6.67 (17:20) 0.2 0 0 0.2 0
07-11-2020 12.1 (02:30) 8.7 (00:00) 10.4 27.22 (05:20) 12.22 (05:20) 12.6 8 3.8 0.8 0
06-11-2020 13.8 (12:50) 8.8 (00:00) 11.3 16.11 (19:30) 12.5 (18:10) 0 0 0 0 0
05-11-2020 10.1 (12:20) 5.1 (00:00) 7.6 15 (16:50) 11.67 (11:30) 3 0 0.2 0 2.8
04-11-2020 7.7 (14:40) 3.6 (00:00) 5.6 12.5 (03:40) 9.72 (04:00) 1 0 0 0.6 0.4
03-11-2020 10.4 (00:40) 4.9 (00:00) 7.6 15.83 (10:50) 11.39 (12:20) 1.6 0 1.4 0.2 0
02-11-2020 19.1 (14:00) 6.8 (00:00) 13 8.61 (15:00) 6.11 (15:20) 0 0 0 0 0
01-11-2020 20 (14:40) 5.5 (00:00) 12.8 8.89 (13:30) 5.56 (13:30) 0 0 0 0 0
31-10-2020 20.6 (15:50) 2.2 (00:00) 11.4 10.28 (16:20) 6.67 (16:40) 0 0 0 0 0
30-10-2020 19.9 (14:40) -0.1 (00:00) 9.9 5.56 (14:30) 3.61 (07:20) 0.2 0 0.2 0 0

Gráficas

Temp. máximas Temp. mínimas Temp. medias Precipitaciones Rachas de viento máximas Velocidades máximas media en intervalos de 10 minutos

Datos horarios

Fecha y hora oficial Temperatura (ºC) Velocidad del viento (km/h) Dirección del viento Racha (km/h) Dirección de racha Precipitación (mm) Presión (hPa) Tendencia (hPa) Humedad (%)
2020-11-28 23:00:00 -- -- -- -- -- -- -- -- --
2020-11-28 22:00:00 7.1 7 Sudeste 16 Sudeste 0 -- -- 83
2020-11-28 21:00:00 6.9 13 Sudeste 18 Este 0 -- -- 87
2020-11-28 20:00:00 7.1 10 Este 15 Este 0 -- -- 88
2020-11-28 19:00:00 7.4 9 Este 15 Este 0 -- -- 88
2020-11-28 18:00:00 7.6 4 Este 14 Sur 0 -- -- 89
2020-11-28 17:00:00 8.1 9 Sur 19 Sudeste 0 -- -- 88
2020-11-28 16:00:00 8.1 15 Sudeste 23 Sudeste 0 -- -- 83
2020-11-28 15:00:00 8.7 17 Sudeste 22 Sudeste 0 -- -- 83
2020-11-28 14:00:00 9.4 8 Sudeste 13 Sudeste 0 -- -- 74
2020-11-28 13:00:00 9.3 4 Nordeste 8 Norte 0 -- -- 76
2020-11-28 12:00:00 8.3 4 Norte 7 Este 0 -- -- 83
2020-11-28 11:00:00 7.5 3 Este 10 Este 0 -- -- 87
2020-11-28 10:00:00 6.4 7 Este 10 Este 0 -- -- 93
2020-11-28 09:00:00 6.1 3 Este 6 Este 0 -- -- 93
2020-11-28 08:00:00 6.1 2 Norte 8 Este 0 -- -- 94
2020-11-28 07:00:00 6.2 7 Sudeste 17 Sudeste 0 -- -- 92
2020-11-28 06:00:00 6.2 12 Sudeste 28 Sudeste 0 -- -- 91
2020-11-28 05:00:00 6.4 14 Sudeste 29 Este 0 -- -- 92
2020-11-28 04:00:00 6.5 18 Sudeste 29 Este 0 -- -- 92
2020-11-28 03:00:00 6.7 23 Sudeste 37 Sudeste 0 -- -- 89
2020-11-28 02:00:00 7 18 Sudeste 40 Sudeste 0 -- -- 88
2020-11-28 01:00:00 7.4 22 Sudeste 32 Sudeste 0 -- -- 90
2020-11-28 00:00:00 7 16 Sudeste 24 Sudeste 0 -- -- 90
2020-11-27 23:00:00 7.5 17 Sudeste 29 Este 0 -- -- 91
2020-11-27 22:00:00 7.8 18 Sudeste 32 Sudeste 0 -- -- 90
2020-11-27 21:00:00 8.1 17 Este 26 Este 0 -- -- 89
2020-11-27 20:00:00 7.4 11 Sudeste 24 Sudeste 0 -- -- 88
2020-11-27 19:00:00 8.2 13 Sudeste 30 Sudeste 0 -- -- 89
2020-11-27 18:00:00 8.2 15 Sudeste 33 Sudeste 0 -- -- 89
2020-11-27 17:00:00 8.4 14 Sudeste 35 Sudeste 0 -- -- 90
2020-11-27 16:00:00 9.1 24 Sudeste 34 Este 0.2 -- -- 89
2020-11-27 15:00:00 8.7 15 Este 32 Sudeste 0.8 -- -- 93
2020-11-27 14:00:00 9.3 22 Sudeste 38 Sudeste 0 -- -- 86
2020-11-27 13:00:00 9 21 Sudeste 34 Sudeste 0 -- -- 89
2020-11-27 12:00:00 8.7 24 Este 35 Este 0 -- -- 92
2020-11-27 11:00:00 8 19 Sudeste 35 Este 0.2 -- -- 94
2020-11-27 10:00:00 7.6 15 Sudeste 39 Sudeste 0.4 -- -- 94
2020-11-27 09:00:00 7.1 34 Sudeste 45 Sudeste 1.4 -- -- 90
2020-11-27 08:00:00 7.7 31 Sudeste 48 Sudeste 0.2 -- -- 89
2020-11-27 07:00:00 8.1 36 Sudeste 53 Sudeste 0 -- -- 89
2020-11-27 06:00:00 8.1 28 Sudeste 40 Sudeste 0 -- -- 90
2020-11-27 05:00:00 8.4 31 Sudeste 45 Sudeste 0 -- -- 91
2020-11-27 04:00:00 8.4 27 Sudeste 43 Sudeste 0 -- -- 93
2020-11-27 03:00:00 8.4 30 Sudeste 52 Sudeste 0 -- -- 92
2020-11-27 02:00:00 8.3 34 Sudeste 50 Sudeste 0 -- -- 91
2020-11-27 01:00:00 8.5 36 Sudeste 52 Sudeste 0 -- -- 91
2020-11-27 00:00:00 8.5 16 Sudeste 35 Sudeste 0 -- -- 90
2020-11-26 23:00:00 8.3 26 Sudeste 40 Sudeste 0 -- -- 91
2020-11-26 22:00:00 8.1 25 Sudeste 50 Este 0 -- -- 92
2020-11-26 21:00:00 7.7 33 Sudeste 48 Sudeste 0 -- -- 92
2020-11-26 20:00:00 7.7 29 Sudeste 42 Sudeste 0 -- -- 91
2020-11-26 19:00:00 7.8 29 Sudeste 48 Sudeste 0 -- -- 91
2020-11-26 18:00:00 7.6 33 Sudeste 45 Sudeste 0 -- -- 94
2020-11-26 17:00:00 7.5 35 Sudeste 49 Este 0 -- -- 93
2020-11-26 16:00:00 7.7 34 Sudeste 44 Sudeste 0 -- -- 90
2020-11-26 15:00:00 7.9 20 Sudeste 32 Sudeste 0.6 -- -- 91
2020-11-26 14:00:00 7.9 23 Sudeste 37 Sudeste 0.2 -- -- 88
2020-11-26 13:00:00 9 26 Sudeste 39 Sudeste 0 -- -- 79
2020-11-26 12:00:00 8.5 29 Sudeste 37 Sudeste 0 -- -- 82
2020-11-26 11:00:00 8.5 24 Sudeste 36 Sudeste 0 -- -- 80
2020-11-26 10:00:00 6.7 17 Sudeste 39 Sudeste 0 -- -- 87
2020-11-26 09:00:00 5.3 22 Sudeste 37 Sudeste 0 -- -- 88
2020-11-26 08:00:00 4.6 23 Sudeste 40 Sudeste 0 -- -- 86
2020-11-26 07:00:00 5.9 24 Sudeste 39 Sudeste 0 -- -- 82
2020-11-26 06:00:00 5.7 27 Sudeste 35 Sudeste 0 -- -- 83
2020-11-26 05:00:00 5.5 22 Sudeste 36 Sudeste 0 -- -- 82
2020-11-26 04:00:00 5.7 21 Sudeste 31 Sudeste 0 -- -- 80
2020-11-26 03:00:00 6 22 Sudeste 37 Sudeste 0 -- -- 81
2020-11-26 02:00:00 6 17 Sudeste 37 Sudeste 0 -- -- 83
2020-11-26 01:00:00 6.6 25 Sudeste 34 Sudeste 0 -- -- 80
2020-11-26 00:00:00 5 14 Sudeste 26 Sudeste 0 -- -- 84
2020-11-25 23:00:00 5.3 21 Sudeste 36 Sudeste 0 -- -- 79
2020-11-25 22:00:00 5.8 22 Sudeste 30 Sudeste 0 -- -- 77
2020-11-25 21:00:00 6 21 Sudeste 26 Sudeste 0 -- -- 75
2020-11-25 20:00:00 5.2 17 Sudeste 34 Sudeste 0 -- -- 77
2020-11-25 19:00:00 7.1 26 Sudeste 37 Sudeste 0 -- -- 72
2020-11-25 18:00:00 7.8 19 Sudeste 27 Sudeste 0 -- -- 69
2020-11-25 17:00:00 9.2 19 Sur 25 Sudeste 0 -- -- 63
2020-11-25 16:00:00 9.1 17 Sur 24 Sur 0 -- -- 65
2020-11-25 15:00:00 9.6 18 Sudoeste 24 Sur 0 -- -- 66
2020-11-25 14:00:00 9 17 Sur 29 Sur 0 -- -- 65
2020-11-25 13:00:00 9 19 Sur 31 Sur 0 -- -- 65
2020-11-25 12:00:00 9 20 Sur 31 Sudoeste 0 -- -- 64
2020-11-25 11:00:00 8.6 17 Sur 24 Sur 0 -- -- 67
2020-11-25 10:00:00 6.6 3 Sur 11 Sudeste 0 -- -- 73
2020-11-25 09:00:00 1 3 Sur 6 Sur 0 -- -- 92
2020-11-25 08:00:00 1 5 Sur 10 Sur 0 -- -- 92
2020-11-25 07:00:00 2 8 Sudeste 10 Sudeste 0 -- -- 88
2020-11-25 06:00:00 0.9 5 Sur 12 Sur 0 -- -- 91
2020-11-25 05:00:00 1.2 8 Sur 13 Sudeste 0 -- -- 90
2020-11-25 04:00:00 0.7 5 Sur 10 Sudeste 0 -- -- 92
2020-11-25 03:00:00 1.3 5 Sur 9 Sur 0 -- -- 89
2020-11-25 02:00:00 1.6 4 Sur 11 Sur 0 -- -- 85
2020-11-25 01:00:00 2.7 3 Sudeste 8 Sur 0 -- -- 83
2020-11-25 00:00:00 3.5 6 Sur 12 Sur 0 -- -- 78
2020-11-24 23:00:00 5.6 4 Sudeste 12 Sur 0 -- -- 71
2020-11-24 22:00:00 6.1 3 Sur 10 Sur 0 -- -- 68
2020-11-24 21:00:00 6.1 5 Sur 15 Sudoeste 0 -- -- 65
2020-11-24 20:00:00 6 3 Sudoeste 7 Sudoeste 0 -- -- 64
2020-11-24 19:00:00 7.5 3 Sur 8 Oeste 0 -- -- 58
2020-11-24 18:00:00 9.7 6 Oeste 9 Oeste 0 -- -- 52
2020-11-24 17:00:00 12.3 8 Oeste 14 Sudoeste 0 -- -- 46
2020-11-24 16:00:00 12.5 10 Oeste 20 Oeste 0 -- -- 49
2020-11-24 15:00:00 13.5 13 Oeste 23 Noroeste 0 -- -- 46
2020-11-24 14:00:00 13.8 5 Sudoeste 18 Oeste 0 -- -- 47
2020-11-24 13:00:00 12 8 Sudoeste 15 Sudoeste 0 -- -- 53
2020-11-24 12:00:00 10.5 6 Sur 11 Sur 0 -- -- 59
2020-11-24 11:00:00 8.1 6 Sudeste 9 Sudeste 0 -- -- 64
2020-11-24 10:00:00 5.9 0 Calma 4 Sudeste 0 -- -- 73
2020-11-24 09:00:00 2.3 0 Calma 5 Norte 0 -- -- 83
2020-11-24 08:00:00 -0.7 0 Calma 4 Nordeste 0 -- -- 89
2020-11-24 07:00:00 1.2 0 Calma 3 Noroeste 0 -- -- 81
2020-11-24 06:00:00 1 0 Calma 2 Sudeste 0 -- -- 82
2020-11-24 05:00:00 0.4 2 Nordeste 3 Nordeste 0 -- -- 83
2020-11-24 04:00:00 0.1 0 Calma 8 Norte 0 -- -- 83
2020-11-24 03:00:00 0.7 3 Nordeste 7 Norte 0 -- -- 82
2020-11-24 02:00:00 1.7 0 Calma 3 Norte 0 -- -- 78
2020-11-24 01:00:00 1.1 2 Norte 4 Norte 0 -- -- 82
2020-11-24 00:00:00 2 4 Norte 9 Norte 0 -- -- 78
2020-11-23 23:00:00 2.8 0 Calma 6 Nordeste 0 -- -- 75
2020-11-23 22:00:00 3.9 0 Calma 4 Norte 0 -- -- 73
2020-11-23 21:00:00 4.4 0 Calma 5 Sudeste 0 -- -- 70
2020-11-23 20:00:00 5.9 3 Este 6 Este 0 -- -- 66
2020-11-23 19:00:00 7.4 4 Sudeste 13 Sudeste 0 -- -- 60
2020-11-23 18:00:00 9.6 13 Sudeste 17 Este 0 -- -- 50
2020-11-23 17:00:00 15.3 2 Noroeste 8 Nordeste 0 -- -- 30
2020-11-23 16:00:00 14.7 6 Nordeste 14 Noroeste 0 -- -- 30
2020-11-23 15:00:00 15.8 3 Nordeste 9 Nordeste 0 -- -- 31
2020-11-23 14:00:00 14.8 4 Sur 10 Sur 0 -- -- 34
2020-11-23 13:00:00 12.9 4 Sur 9 Sudoeste 0 -- -- 47
2020-11-23 12:00:00 11.1 3 Sur 7 Sur 0 -- -- 52
2020-11-23 11:00:00 9.1 2 Sur 5 Norte 0 -- -- 57
2020-11-23 10:00:00 3.2 4 Norte 10 Norte 0 -- -- 75
2020-11-23 09:00:00 1 3 Nordeste 10 Norte 0 -- -- 78
2020-11-23 08:00:00 -2.5 8 Norte 12 Norte 0 -- -- 89
2020-11-23 07:00:00 -0.6 9 Nordeste 12 Norte 0 -- -- 85
2020-11-23 06:00:00 -1.1 9 Norte 12 Nordeste 0 -- -- 87
2020-11-23 05:00:00 -0.3 5 Nordeste 11 Norte 0 -- -- 86
2020-11-23 04:00:00 -0.7 4 Norte 5 Norte 0 -- -- 85
2020-11-23 03:00:00 1 5 Norte 15 Nordeste 0 -- -- 81
2020-11-23 02:00:00 1.7 7 Nordeste 12 Nordeste 0 -- -- 78
2020-11-23 01:00:00 3.3 9 Nordeste 12 Norte 0 -- -- 71
2020-11-23 00:00:00 4 8 Norte 9 Norte 0 -- -- 70
2020-11-22 23:00:00 5 6 Norte 10 Norte 0 -- -- 66
2020-11-22 22:00:00 3.7 6 Norte 11 Nordeste 0 -- -- 71
2020-11-22 21:00:00 4.2 4 Norte 6 Norte 0 -- -- 67
2020-11-22 20:00:00 7.2 4 Nordeste 8 Norte 0 -- -- 56
2020-11-22 19:00:00 8.8 4 Nordeste 11 Norte 0 -- -- 52
2020-11-22 18:00:00 11.3 6 Noroeste 11 Noroeste 0 -- -- 47
2020-11-22 17:00:00 15.4 4 Noroeste 9 Noroeste 0 -- -- 39
2020-11-22 16:00:00 15.4 7 Noroeste 13 Noroeste 0 -- -- 36
2020-11-22 15:00:00 14.9 8 Noroeste 16 Noroeste 0 -- -- 39
2020-11-22 14:00:00 12.8 11 Noroeste 16 Noroeste 0 -- -- 45
2020-11-22 13:00:00 10.7 11 Norte 16 Noroeste 0 -- -- 48
2020-11-22 12:00:00 9.1 5 Noroeste 10 Noroeste 0 -- -- 52
2020-11-22 11:00:00 6 3 Noroeste 6 Noroeste 0 -- -- 60
2020-11-22 10:00:00 3.4 5 Nordeste 7 Nordeste 0 -- -- 67
2020-11-22 09:00:00 0.4 4 Nordeste 6 Nordeste 0 -- -- 75
2020-11-22 08:00:00 -0.1 0 Calma 2 Sur 0 -- -- 78
2020-11-22 07:00:00 -0.9 0 Calma 12 Norte 0 -- -- 77
2020-11-22 06:00:00 -0.4 0 Calma 6 Nordeste 0 -- -- 69
2020-11-22 05:00:00 -1.3 3 Norte 6 Norte 0 -- -- 72
2020-11-22 04:00:00 -1.6 0 Calma 9 Nordeste 0 -- -- 74
2020-11-22 03:00:00 -0.9 8 Norte 9 Norte 0 -- -- 72
2020-11-22 02:00:00 -0.6 5 Norte 8 Norte 0 -- -- 69
2020-11-22 01:00:00 -1 6 Norte 8 Nordeste 0 -- -- 69
2020-11-22 00:00:00 1.3 0 Calma 9 Norte 0 -- -- 57
2020-11-21 23:00:00 1.2 3 Norte 10 Norte 0 -- -- 61
2020-11-21 22:00:00 3.4 5 Nordeste 12 Norte 0 -- -- 52
2020-11-21 21:00:00 2.9 5 Nordeste 8 Nordeste 0 -- -- 51
2020-11-21 20:00:00 3.6 5 Norte 12 Sudeste 0 -- -- 49
2020-11-21 19:00:00 6.3 11 Este 14 Este 0 -- -- 41
2020-11-21 18:00:00 8.3 7 Sudeste 16 Sur 0 -- -- 34
2020-11-21 17:00:00 12.4 14 Sur 19 Sur 0 -- -- 27
2020-11-21 16:00:00 13.9 16 Sur 22 Sur 0 -- -- 26
2020-11-21 15:00:00 14.1 14 Sur 22 Sur 0 -- -- 27
2020-11-21 14:00:00 13.2 14 Sur 20 Sur 0 -- -- 30
2020-11-21 13:00:00 12 10 Sur 14 Sur 0 -- -- 28
2020-11-21 12:00:00 11.4 4 Sudeste 8 Sudeste 0 -- -- 25
2020-11-21 11:00:00 9.7 4 Sudoeste 7 Sudoeste 0 -- -- 27
2020-11-21 10:00:00 7.2 4 Sur 8 Norte 0 -- -- 32
2020-11-21 09:00:00 2.1 6 Norte 9 Norte 0 -- -- 42
2020-11-21 08:00:00 0.3 0 Calma 9 Sudeste 0 -- -- 43
2020-11-21 07:00:00 1.6 4 Sur 17 Nordeste 0 -- -- 37
2020-11-21 06:00:00 4 15 Nordeste 26 Norte 0 -- -- 29
2020-11-21 05:00:00 5.1 15 Norte 34 Norte 0 -- -- 28
2020-11-21 04:00:00 2.2 17 Norte 20 Nordeste 0 -- -- 40
2020-11-21 03:00:00 3.4 9 Norte 31 Nordeste 0 -- -- 35
2020-11-21 02:00:00 5.2 22 Nordeste 31 Nordeste 0 -- -- 32
2020-11-21 01:00:00 5 14 Norte 22 Norte 0 -- -- 36
2020-11-21 00:00:00 5.4 26 Norte 40 Norte 0 -- -- 32
2020-11-20 23:00:00 6 26 Norte 51 Norte 0 -- -- 29
2020-11-20 22:00:00 5.9 33 Norte 46 Nordeste 0 -- -- 33
2020-11-20 21:00:00 5 39 Nordeste 54 Norte 0 -- -- 49
2020-11-20 20:00:00 5.4 31 Norte 43 Norte 0 -- -- 58
2020-11-20 19:00:00 5.6 35 Norte 50 Nordeste 0 -- -- 65
2020-11-20 18:00:00 6.6 27 Norte 39 Norte 0 -- -- 58
2020-11-20 17:00:00 8.9 17 Norte 34 Nordeste 0 -- -- 47
2020-11-20 16:00:00 10.2 24 Nordeste 48 Nordeste 0 -- -- 35
2020-11-20 15:00:00 10.4 37 Norte 55 Nordeste 0 -- -- 32
2020-11-20 14:00:00 10.1 42 Norte 57 Norte 0 -- -- 36
2020-11-20 13:00:00 9.4 40 Norte 54 Norte 0 -- -- 42
2020-11-20 12:00:00 8.5 37 Nordeste 51 Nordeste 0 -- -- 48
2020-11-20 11:00:00 6.8 32 Norte 44 Nordeste 0 -- -- 65
2020-11-20 10:00:00 6.1 30 Norte 68 Norte 0 -- -- 73
2020-11-20 09:00:00 4.8 42 Nordeste 64 Norte 0 -- -- 75
2020-11-20 08:00:00 3.7 43 Norte 61 Norte 0 -- -- 78
2020-11-20 07:00:00 3.7 33 Norte 53 Norte 0 -- -- 78
2020-11-20 06:00:00 3.9 31 Norte 44 Norte 0 -- -- 76
2020-11-20 05:00:00 4.1 22 Norte 31 Norte 0 -- -- 80
2020-11-20 04:00:00 3.7 18 Norte 29 Norte 0 -- -- 87
2020-11-20 03:00:00 4.5 23 Norte 51 Norte 0 -- -- 82
2020-11-20 02:00:00 4.9 35 Norte 53 Norte 0 -- -- 84
2020-11-20 01:00:00 5.3 33 Norte 58 Norte 0 -- -- 82
2020-11-20 00:00:00 6 45 Nordeste 60 Norte 0 -- -- 80
2020-11-19 23:00:00 5.6 15 Nordeste 19 Nordeste 0 -- -- 85
2020-11-19 22:00:00 6.6 14 Norte 42 Nordeste 0 -- -- 84
2020-11-19 21:00:00 7.4 30 Nordeste 39 Nordeste 0 -- -- 86
2020-11-19 20:00:00 8 16 Nordeste 40 Nordeste 0 -- -- 89
2020-11-19 19:00:00 8.6 17 Nordeste 42 Nordeste 0 -- -- 89
2020-11-19 18:00:00 9.7 34 Nordeste 44 Nordeste 0 -- -- 87
2020-11-19 17:00:00 12.3 33 Nordeste 46 Nordeste 0 -- -- 76
2020-11-19 16:00:00 14.9 27 Nordeste 34 Nordeste 0 -- -- 68
2020-11-19 15:00:00 15.8 27 Norte 40 Norte 0 -- -- 61
2020-11-19 14:00:00 15.2 29 Nordeste 48 Norte 0 -- -- 68
2020-11-19 13:00:00 14.8 33 Nordeste 45 Nordeste 0 -- -- 68
2020-11-19 12:00:00 14.7 22 Norte 40 Nordeste 0 -- -- 70
2020-11-19 11:00:00 14.3 31 Norte 47 Nordeste 0 -- -- 73
2020-11-19 10:00:00 12.6 26 Norte 38 Norte 0 -- -- 79
2020-11-19 09:00:00 11.2 23 Norte 35 Norte 0 -- -- 81
2020-11-19 08:00:00 7.6 16 Norte 24 Norte 0 -- -- 84
2020-11-19 07:00:00 4.8 17 Nordeste 21 Nordeste 0 -- -- 90
2020-11-19 06:00:00 3.8 7 Nordeste 14 Nordeste 0 -- -- 92
2020-11-19 05:00:00 4.2 7 Nordeste 12 Norte 0 -- -- 93
2020-11-19 04:00:00 5.4 6 Nordeste 12 Norte 0 -- -- 88
2020-11-19 03:00:00 6.5 5 Nordeste 9 Nordeste 0 -- -- 89
2020-11-19 02:00:00 6.5 3 Nordeste 14 Nordeste 0 -- -- 88
2020-11-19 01:00:00 6.3 8 Nordeste 12 Nordeste 0 -- -- 89
2020-11-19 00:00:00 8.3 5 Nordeste 12 Nordeste 0 -- -- 80
2020-11-18 23:00:00 9.4 8 Nordeste 13 Nordeste 0 -- -- 76
2020-11-18 22:00:00 9.3 7 Nordeste 10 Nordeste 0 -- -- 74
2020-11-18 21:00:00 10.8 7 Nordeste 11 Norte 0 -- -- 69
2020-11-18 20:00:00 13.5 6 Norte 24 Noroeste 0 -- -- 60
2020-11-18 19:00:00 15.3 14 Noroeste 27 Noroeste 0 -- -- 54
2020-11-18 18:00:00 15.8 5 Sur 23 Noroeste 0 -- -- 53
2020-11-18 17:00:00 17.4 16 Noroeste 31 Noroeste 0 -- -- 52
2020-11-18 16:00:00 18.3 19 Noroeste 29 Noroeste 0 -- -- 48
2020-11-18 15:00:00 18.5 19 Norte 28 Noroeste 0 -- -- 43
2020-11-18 14:00:00 17.4 14 Noroeste 21 Noroeste 0 -- -- 53
2020-11-18 13:00:00 15.4 7 Norte 15 Norte 0 -- -- 62
2020-11-18 12:00:00 12.6 3 Nordeste 12 Norte 0 -- -- 70
2020-11-18 11:00:00 8.2 8 Nordeste 13 Nordeste 0 -- -- 95
2020-11-18 10:00:00 5 9 Nordeste 12 Este 0 -- -- 95
2020-11-18 09:00:00 3.8 5 Nordeste 9 Nordeste 0 -- -- 97
2020-11-18 08:00:00 2.8 3 Este 8 Nordeste 0 -- -- 99
2020-11-18 07:00:00 3.6 3 Norte 9 Norte 0 -- -- 97
2020-11-18 06:00:00 2.6 0 Calma 10 Nordeste 0 -- -- 94
2020-11-18 05:00:00 3.4 6 Nordeste 9 Nordeste 0 -- -- 95
2020-11-18 04:00:00 4 4 Nordeste 9 Nordeste 0 -- -- 94
2020-11-18 03:00:00 4.6 5 Nordeste 6 Nordeste 0 -- -- 98
2020-11-18 02:00:00 5.6 5 Norte 7 Norte 0 -- -- 93
2020-11-18 01:00:00 5.3 0 Calma 8 Nordeste 0 -- -- 94
2020-11-18 00:00:00 5.2 5 Nordeste 9 Nordeste 0 -- -- 89
2020-11-17 23:00:00 7.3 5 Nordeste 8 Nordeste 0 -- -- 84
2020-11-17 22:00:00 9.5 0 Calma 6 Sudeste 0 -- -- 73
2020-11-17 21:00:00 10.8 4 Sur 6 Sur 0 -- -- 64
2020-11-17 20:00:00 11.3 3 Sudoeste 7 Sudoeste 0 -- -- 56
2020-11-17 19:00:00 12 4 Sudoeste 10 Noroeste 0 -- -- 49
2020-11-17 18:00:00 14.6 3 Noroeste 10 Oeste 0 -- -- 34
2020-11-17 17:00:00 19 5 Oeste 12 Noroeste 0 -- -- 33
2020-11-17 16:00:00 18.9 8 Noroeste 13 Noroeste 0 -- -- 35
2020-11-17 15:00:00 18.6 9 Oeste 16 Oeste 0 -- -- 29
2020-11-17 14:00:00 17.8 6 Sudoeste 14 Noroeste 0 -- -- 47
2020-11-17 13:00:00 14.2 5 Norte 12 Noroeste 0 -- -- 60
2020-11-17 12:00:00 11 5 Nordeste 10 Norte 0 -- -- 78
2020-11-17 11:00:00 9.2 2 Este 5 Noroeste 0 -- -- 81
2020-11-17 10:00:00 6.8 4 Norte 6 Norte 0 -- -- 84
2020-11-17 09:00:00 3 5 Nordeste 14 Nordeste 0 -- -- 95
2020-11-17 08:00:00 1.6 4 Nordeste 6 Nordeste 0 -- -- 99
2020-11-17 07:00:00 1.8 0 Calma 10 Nordeste 0 -- -- 99
2020-11-17 06:00:00 1.7 8 Nordeste 12 Nordeste 0 -- -- 99
2020-11-17 05:00:00 2 6 Nordeste 10 Nordeste 0 -- -- 99
2020-11-17 04:00:00 3.3 10 Norte 16 Nordeste 0 -- -- 99
2020-11-17 03:00:00 4.1 14 Nordeste 19 Nordeste 0 -- -- 97
2020-11-17 02:00:00 4.9 8 Nordeste 11 Nordeste 0 -- -- 98
2020-11-17 01:00:00 4 9 Norte 10 Nordeste 0 -- -- 97
2020-11-17 00:00:00 4.9 0 Calma 8 Sur 0 -- -- 96
2020-11-16 23:00:00 6 11 Nordeste 17 Nordeste 0 -- -- 95
2020-11-16 22:00:00 6.6 13 Nordeste 16 Norte 0 -- -- 93
2020-11-16 21:00:00 6.5 10 Norte 14 Norte 0 -- -- 93
2020-11-16 20:00:00 7.3 2 Nordeste 10 Nordeste 0 -- -- 91
2020-11-16 19:00:00 8.2 9 Nordeste 19 Nordeste 0 -- -- 88
2020-11-16 18:00:00 9.9 17 Nordeste 23 Nordeste 0 -- -- 83
2020-11-16 17:00:00 12.5 19 Nordeste 25 Nordeste 0 -- -- 76
2020-11-16 16:00:00 14.6 12 Norte 22 Norte 0 -- -- 62
2020-11-16 15:00:00 15.8 4 Nordeste 14 Noroeste 0 -- -- 64
2020-11-16 14:00:00 14.1 2 Noroeste 14 Norte 0 -- -- 71
2020-11-16 13:00:00 11.4 12 Nordeste 18 Nordeste 0 -- -- 79
2020-11-16 12:00:00 11.1 9 Nordeste 20 Nordeste 0 -- -- 80
2020-11-16 11:00:00 10.2 10 Este 18 Este 0 -- -- 84
2020-11-16 10:00:00 9.1 17 Este 24 Nordeste 0 -- -- 92
2020-11-16 09:00:00 8.6 16 Nordeste 22 Nordeste 0 -- -- 94
2020-11-16 08:00:00 8.8 10 Nordeste 15 Nordeste 0 -- -- 95
2020-11-16 07:00:00 8.7 14 Nordeste 21 Nordeste 0 -- -- 94
2020-11-16 06:00:00 9.9 17 Nordeste 20 Noroeste 0 -- -- 95
2020-11-16 05:00:00 11.2 14 Noroeste 28 Noroeste 0 -- -- 94
2020-11-16 04:00:00 12 18 Noroeste 27 Noroeste 0 -- -- 92
2020-11-16 03:00:00 12.4 18 Noroeste 30 Noroeste 0 -- -- 90
2020-11-16 02:00:00 12.7 24 Noroeste 37 Noroeste 0 -- -- 88
2020-11-16 01:00:00 12.7 17 Noroeste 30 Noroeste 0 -- -- 88
2020-11-16 00:00:00 12.2 6 Oeste 15 Oeste 0 -- -- 91
2020-11-15 23:00:00 12 10 Sudoeste 18 Sudoeste 0 -- -- 91
2020-11-15 22:00:00 11.7 13 Sudoeste 19 Sudoeste 0 -- -- 93
2020-11-15 21:00:00 11.6 9 Sudoeste 18 Sudoeste 0 -- -- 92
2020-11-15 20:00:00 11.5 5 Sudoeste 15 Sudoeste 0 -- -- 93
2020-11-15 19:00:00 11.8 6 Sudoeste 21 Sudoeste 0 -- -- 89
2020-11-15 18:00:00 11.9 8 Sudoeste 27 Sudoeste 0 -- -- 90
2020-11-15 17:00:00 12 15 Oeste 38 Oeste 0.2 -- -- 90
2020-11-15 16:00:00 13.1 21 Oeste 32 Oeste 0.2 -- -- 84
2020-11-15 15:00:00 12.8 22 Oeste 40 Oeste 0 -- -- 85
2020-11-15 14:00:00 15 27 Oeste 37 Oeste 0 -- -- 78
2020-11-15 13:00:00 14.8 22 Oeste 32 Sudoeste 0 -- -- 78
2020-11-15 12:00:00 14.1 21 Oeste 33 Sudoeste 0 -- -- 80
2020-11-15 11:00:00 11.1 26 Oeste 39 Oeste 0 -- -- 90
2020-11-15 10:00:00 10.4 21 Oeste 33 Oeste 0 -- -- 93
2020-11-15 09:00:00 9.7 18 Oeste 31 Oeste 0 -- -- 94
2020-11-15 08:00:00 9 8 Sudoeste 15 Sudoeste 0 -- -- 96
2020-11-15 07:00:00 8.3 9 Sudoeste 18 Oeste 0 -- -- 95
2020-11-15 06:00:00 8.4 6 Sudoeste 17 Oeste 0 -- -- 93
2020-11-15 05:00:00 9.1 10 Oeste 19 Oeste 0 -- -- 93
2020-11-15 04:00:00 9.1 9 Oeste 15 Oeste 0 -- -- 96
2020-11-15 03:00:00 9 9 Sudoeste 14 Sudoeste 0 -- -- 96
2020-11-15 02:00:00 8.6 6 Sudoeste 10 Oeste 0 -- -- 95
2020-11-15 01:00:00 8.8 5 Oeste 11 Oeste 0 -- -- 96
2020-11-15 00:00:00 8.8 10 Oeste 14 Oeste 0 -- -- 95
2020-11-14 23:00:00 8.6 3 Sur 12 Sudoeste 0 -- -- 95
2020-11-14 22:00:00 8.9 5 Sudoeste 19 Oeste 0 -- -- 94
2020-11-14 21:00:00 10 15 Oeste 22 Oeste 0 -- -- 93
2020-11-14 20:00:00 10 8 Sudoeste 13 Sur 0 -- -- 94
2020-11-14 19:00:00 9.9 10 Sur 18 Sudoeste 0.2 -- -- 95
2020-11-14 18:00:00 10.5 5 Sudoeste 8 Oeste 0 -- -- 94
2020-11-14 17:00:00 10.7 7 Sudoeste 14 Sudoeste 0 -- -- 93
2020-11-14 16:00:00 11.1 4 Oeste 13 Oeste 0 -- -- 89
2020-11-14 15:00:00 10.9 7 Oeste 17 Oeste 0.2 -- -- 90
2020-11-14 14:00:00 10.9 11 Oeste 24 Oeste 0 -- -- 86
2020-11-14 13:00:00 12.1 12 Sudoeste 23 Oeste 0 -- -- 77
2020-11-14 12:00:00 11.7 3 Oeste 8 Oeste 0 -- -- 79
2020-11-14 11:00:00 10.1 2 Oeste 4 Oeste 0 -- -- 87
2020-11-14 10:00:00 7.8 0 Calma 3 Sudeste 0 -- -- 97
2020-11-14 09:00:00 5.3 0 Calma 3 Norte 0 -- -- 98
2020-11-14 08:00:00 4.6 2 Sur 7 Sudoeste 0 -- -- 98
2020-11-14 07:00:00 4.7 3 Sur 7 Sur 0 -- -- 97
2020-11-14 06:00:00 5.1 5 Sur 10 Sur 0 -- -- 96
2020-11-14 05:00:00 6.2 8 Sur 10 Sur 0 -- -- 93
2020-11-14 04:00:00 7.2 6 Sur 12 Sur 0 -- -- 90
2020-11-14 03:00:00 7.5 8 Sur 12 Sur 0 -- -- 89
2020-11-14 02:00:00 7.5 4 Sur 5 Sur 0 -- -- 89
2020-11-14 01:00:00 7.7 4 Sur 6 Sur 0 -- -- 89
2020-11-14 00:00:00 7.4 3 Sur 4 Sur 0 -- -- 89
2020-11-13 23:00:00 7.7 0 Calma 7 Noroeste 0 -- -- 87
2020-11-13 22:00:00 8.3 2 Sur 4 Sur 0 -- -- 84
2020-11-13 21:00:00 8.4 2 Sudeste 7 Sur 0 -- -- 83
2020-11-13 20:00:00 9.1 0 Calma 4 Oeste 0 -- -- 80
2020-11-13 19:00:00 10.1 2 Oeste 5 Sudoeste 0 -- -- 77
2020-11-13 18:00:00 11.5 4 Sudoeste 10 Sudoeste 0 -- -- 71
2020-11-13 17:00:00 14.5 8 Oeste 22 Sudoeste 0 -- -- 58
2020-11-13 16:00:00 15.5 17 Sudoeste 25 Sudoeste 0 -- -- 58
2020-11-13 15:00:00 14.4 4 Noroeste 13 Oeste 0 -- -- 62
2020-11-13 14:00:00 12.7 9 Sudoeste 17 Sur 0 -- -- 65
2020-11-13 13:00:00 13.4 12 Sudoeste 18 Sudoeste 0 -- -- 64
2020-11-13 12:00:00 12.5 11 Sudoeste 19 Sur 0 -- -- 66
2020-11-13 11:00:00 11.6 6 Sudoeste 11 Sur 0 -- -- 71
2020-11-13 10:00:00 8.6 3 Sur 4 Sudeste 0 -- -- 84
2020-11-13 09:00:00 6.2 3 Este 6 Sudeste 0 -- -- 90
2020-11-13 08:00:00 5.4 3 Sur 4 Sur 0 -- -- 94
2020-11-13 07:00:00 5.9 3 Sudeste 4 Sudeste 0 -- -- 91
2020-11-13 06:00:00 5.5 2 Nordeste 3 Sudeste 0 -- -- 93
2020-11-13 05:00:00 5.4 0 Calma 5 Sur 0 -- -- 92
2020-11-13 04:00:00 6.3 0 Calma 2 Sur 0 -- -- 91
2020-11-13 03:00:00 7 0 Calma 5 Nordeste 0 -- -- 87
2020-11-13 02:00:00 6.6 2 Nordeste 5 Norte 0 -- -- 89
2020-11-13 01:00:00 7.1 2 Sudeste 4 Este 0 -- -- 85
2020-11-13 00:00:00 7.6 0 Calma 4 Norte 0 -- -- 84
2020-11-12 23:00:00 7.6 0 Calma 4 Nordeste 0 -- -- 85
2020-11-12 22:00:00 7 2 Nordeste 9 Este 0 -- -- 86
2020-11-12 21:00:00 8.2 3 Sudeste 6 Sudeste 0 -- -- 81
2020-11-12 20:00:00 8.8 5 Este 8 Sudeste 0 -- -- 81
2020-11-12 19:00:00 9.3 4 Sur 10 Sudeste 0 -- -- 78
2020-11-12 18:00:00 10.7 5 Sudeste 14 Sudoeste 0 -- -- 72
2020-11-12 17:00:00 13.5 9 Sudoeste 17 Sur 0 -- -- 63
2020-11-12 16:00:00 16.2 9 Sur 14 Sur 0 -- -- 54
2020-11-12 15:00:00 15.2 7 Sur 16 Sudoeste 0 -- -- 59
2020-11-12 14:00:00 14.9 6 Sudoeste 12 Sudoeste 0 -- -- 63
2020-11-12 13:00:00 12.9 2 Noroeste 7 Sudoeste 0 -- -- 73
2020-11-12 12:00:00 10 2 Nordeste 7 Nordeste 0 -- -- 78
2020-11-12 11:00:00 8.3 3 Nordeste 7 Norte 0 -- -- 85
2020-11-12 10:00:00 7.6 5 Nordeste 7 Nordeste 0 -- -- 89
2020-11-12 09:00:00 4.3 0 Calma 6 Norte 0 -- -- 93
2020-11-12 08:00:00 4.4 6 Norte 9 Nordeste 0 -- -- 94
2020-11-12 07:00:00 4 4 Nordeste 4 Norte 0 -- -- 92
2020-11-12 06:00:00 4.4 2 Norte 4 Sudeste 0 -- -- 92
2020-11-12 05:00:00 5.5 2 Nordeste 5 Norte 0 -- -- 90
2020-11-12 04:00:00 4.8 2 Sudeste 9 Sudeste 0 -- -- 93
2020-11-12 03:00:00 5.9 0 Calma 6 Norte 0 -- -- 89
2020-11-12 02:00:00 6.2 4 Noroeste 8 Noroeste 0 -- -- 90
2020-11-12 01:00:00 6.7 4 Noroeste 14 Noroeste 0 -- -- 87
2020-11-12 00:00:00 5.8 4 Norte 8 Noroeste 0 -- -- 87
2020-11-11 23:00:00 7 2 Noroeste 11 Noroeste 0 -- -- 83
2020-11-11 22:00:00 7.8 3 Noroeste 10 Noroeste 0 -- -- 79
2020-11-11 21:00:00 8.6 8 Noroeste 19 Noroeste 0 -- -- 77
2020-11-11 20:00:00 8.7 9 Noroeste 18 Oeste 0 -- -- 77
2020-11-11 19:00:00 9.5 10 Oeste 14 Oeste 0 -- -- 69
2020-11-11 18:00:00 10.9 4 Oeste 15 Oeste 0 -- -- 63
2020-11-11 17:00:00 13.5 17 Oeste 25 Oeste 0 -- -- 53
2020-11-11 16:00:00 14 22 Oeste 30 Oeste 0 -- -- 53
2020-11-11 15:00:00 15.2 23 Oeste 32 Oeste 0 -- -- 50
2020-11-11 14:00:00 14.4 18 Oeste 28 Oeste 0 -- -- 57
2020-11-11 13:00:00 13.5 15 Sudoeste 23 Sudoeste 0 -- -- 66
2020-11-11 12:00:00 11.8 14 Sudoeste 18 Sudoeste 0 -- -- 71
2020-11-11 11:00:00 10 7 Sur 11 Sur 0 -- -- 76
2020-11-11 10:00:00 8.8 2 Sudoeste 6 Nordeste 0 -- -- 83
2020-11-11 09:00:00 2.4 6 Nordeste 8 Nordeste 0 -- -- 95
2020-11-11 08:00:00 0.5 0 Calma 8 Nordeste 0 -- -- 98
2020-11-11 07:00:00 1.3 4 Norte 10 Nordeste 0 -- -- 97
2020-11-11 06:00:00 1.3 5 Nordeste 7 Nordeste 0 -- -- 98
2020-11-11 05:00:00 2.2 0 Calma 6 Nordeste 0 -- -- 97
2020-11-11 04:00:00 3.1 2 Sudeste 6 Nordeste 0 -- -- 97
2020-11-11 03:00:00 2.5 0 Calma 6 Nordeste 0 -- -- 97
2020-11-11 02:00:00 3.9 0 Calma 8 Nordeste 0 -- -- 96
2020-11-11 01:00:00 3.9 4 Nordeste 9 Nordeste 0 -- -- 96
2020-11-11 00:00:00 4.8 3 Sudeste 6 Sudeste 0 -- -- 93
2020-11-10 23:00:00 6 2 Este 9 Sudeste 0 -- -- 88
2020-11-10 22:00:00 6.2 3 Nordeste 13 Sudeste 0 -- -- 86
2020-11-10 21:00:00 7.3 7 Este 12 Sudeste 0 -- -- 84
2020-11-10 20:00:00 7.7 10 Sudeste 12 Sudeste 0 -- -- 83
2020-11-10 19:00:00 9.6 5 Nordeste 10 Nordeste 0 -- -- 76
2020-11-10 18:00:00 11.2 4 Norte 10 Noroeste 0 -- -- 71
2020-11-10 17:00:00 14.5 6 Oeste 10 Noroeste 0 -- -- 58
2020-11-10 16:00:00 14.8 7 Norte 16 Noroeste 0 -- -- 58
2020-11-10 15:00:00 14.3 7 Norte 18 Norte 0 -- -- 63
2020-11-10 14:00:00 13.1 6 Norte 17 Norte 0 -- -- 67
2020-11-10 13:00:00 11.5 10 Noroeste 16 Noroeste 0 -- -- 74
2020-11-10 12:00:00 10.1 6 Norte 10 Norte 0 -- -- 81
2020-11-10 11:00:00 9.1 2 Nordeste 5 Oeste 0 -- -- 82
2020-11-10 10:00:00 8.2 0 Calma 6 Nordeste 0 -- -- 86
2020-11-10 09:00:00 4.8 5 Nordeste 13 Nordeste 0 -- -- 94
2020-11-10 08:00:00 1.9 12 Nordeste 14 Este 0 -- -- 99
2020-11-10 07:00:00 2 4 Nordeste 8 Norte 0 -- -- 98
2020-11-10 06:00:00 2.8 3 Este 9 Nordeste 0 -- -- 99
2020-11-10 05:00:00 2.6 3 Nordeste 13 Nordeste 0 -- -- 98
2020-11-10 04:00:00 3.3 6 Nordeste 10 Nordeste 0 -- -- 98
2020-11-10 03:00:00 3.7 5 Nordeste 11 Nordeste 0 -- -- 98
2020-11-10 02:00:00 4 7 Nordeste 12 Nordeste 0 -- -- 97
2020-11-10 01:00:00 4.4 4 Nordeste 6 Norte 0 -- -- 96
2020-11-10 00:00:00 5.7 2 Norte 15 Este 0 -- -- 93
2020-11-09 23:00:00 6.9 9 Nordeste 13 Este 0 -- -- 90
2020-11-09 22:00:00 7.2 0 Calma 8 Norte 0 -- -- 91
2020-11-09 21:00:00 7.7 3 Norte 6 Noroeste 0 -- -- 92
2020-11-09 20:00:00 9.1 4 Norte 8 Noroeste 0 -- -- 85
2020-11-09 19:00:00 10.2 6 Noroeste 14 Norte 0 -- -- 82
2020-11-09 18:00:00 10.8 4 Oeste 15 Oeste 0 -- -- 79
2020-11-09 17:00:00 12.1 10 Oeste 24 Oeste 0 -- -- 75
2020-11-09 16:00:00 13.6 14 Noroeste 21 Oeste 0 -- -- 64
2020-11-09 15:00:00 13.4 9 Oeste 16 Noroeste 0 -- -- 67
2020-11-09 14:00:00 12.8 6 Norte 14 Noroeste 0 -- -- 73
2020-11-09 13:00:00 12.3 5 Noroeste 12 Norte 0 -- -- 77
2020-11-09 12:00:00 11.5 2 Sudoeste 6 Sudoeste 0 -- -- 82
2020-11-09 11:00:00 10.5 0 Calma 5 Oeste 0 -- -- 84
2020-11-09 10:00:00 7.9 0 Calma 6 Nordeste 0.2 -- -- 94
2020-11-09 09:00:00 5.7 5 Nordeste 10 Sudeste 0 -- -- 96
2020-11-09 08:00:00 5.7 2 Sudeste 5 Sudeste 0 -- -- 96
2020-11-09 07:00:00 4.4 3 Nordeste 4 Nordeste 0 -- -- 99
2020-11-09 06:00:00 3.7 0 Calma 6 Norte 0 -- -- 96
2020-11-09 05:00:00 4.1 3 Sudeste 6 Sur 0 -- -- 97
2020-11-09 04:00:00 5.5 0 Calma 2 Nordeste 0 -- -- 96
2020-11-09 03:00:00 5.1 0 Calma 5 Sudeste 0 -- -- 94
2020-11-09 02:00:00 5.1 0 Calma 5 Sudeste 0 -- -- 94
2020-11-09 01:00:00 6.1 2 Sudeste 6 Nordeste 0 -- -- 91
2020-11-09 00:00:00 6.7 2 Sur 9 Sur 0 -- -- 86
2020-11-08 23:00:00 6.5 5 Sur 11 Sur 0 -- -- 92
2020-11-08 22:00:00 7 8 Sur 18 Sur 0 -- -- 87
2020-11-08 21:00:00 7.6 13 Sur 15 Sur 0 -- -- 86
2020-11-08 20:00:00 9 9 Sur 12 Sudoeste 0 -- -- 79
2020-11-08 19:00:00 9.5 10 Oeste 17 Oeste 0 -- -- 76
2020-11-08 18:00:00 10.8 12 Oeste 32 Sudoeste 0 -- -- 71
2020-11-08 17:00:00 13.6 22 Sudoeste 28 Sudoeste 0 -- -- 61
2020-11-08 16:00:00 14.3 16 Oeste 26 Sudoeste 0 -- -- 61
2020-11-08 15:00:00 14.4 17 Sudoeste 31 Sudoeste 0.2 -- -- 64
2020-11-08 14:00:00 14.4 17 Sudoeste 26 Sudoeste 0 -- -- 63
2020-11-08 13:00:00 12.6 14 Oeste 24 Oeste 0 -- -- 70
2020-11-08 12:00:00 12 16 Sudoeste 24 Sur 0 -- -- 78
2020-11-08 11:00:00 9.9 14 Sudoeste 23 Sur 0 -- -- 84
2020-11-08 10:00:00 9.6 15 Sur 23 Sur 0 -- -- 86
2020-11-08 09:00:00 7.6 6 Sudoeste 12 Sur 0 -- -- 92
2020-11-08 08:00:00 5.4 2 Sur 9 Sur 0 -- -- 97
2020-11-08 07:00:00 5.3 3 Sur 8 Sur 0 -- -- 95
2020-11-08 06:00:00 6.4 4 Sur 7 Sur 0 -- -- 95
2020-11-08 05:00:00 6.5 5 Sur 15 Sur 0 -- -- 93
2020-11-08 04:00:00 6.8 6 Sur 13 Sudoeste 0 -- -- 94
2020-11-08 03:00:00 7.6 8 Sur 19 Sur 0 -- -- 90
2020-11-08 02:00:00 7.9 13 Sur 16 Sur 0 -- -- 90
2020-11-08 01:00:00 8.9 10 Sur 15 Sur 0 -- -- 89
2020-11-08 00:00:00 9.2 9 Oeste 22 Oeste 0 -- -- 88
2020-11-07 23:00:00 9.8 14 Oeste 25 Oeste 0 -- -- 86
2020-11-07 22:00:00 9.6 17 Oeste 29 Oeste 0 -- -- 88
2020-11-07 21:00:00 9.9 16 Oeste 26 Oeste 0 -- -- 89
2020-11-07 20:00:00 8.7 0 Calma 13 Oeste 0 -- -- 92
2020-11-07 19:00:00 9.1 10 Oeste 18 Oeste 0 -- -- 91
2020-11-07 18:00:00 9.9 15 Oeste 23 Oeste 0 -- -- 88
2020-11-07 17:00:00 10.4 18 Oeste 30 Oeste 0.2 -- -- 87
2020-11-07 16:00:00 9.4 19 Oeste 44 Noroeste 0 -- -- 85
2020-11-07 15:00:00 11.6 27 Oeste 41 Oeste 0 -- -- 76
2020-11-07 14:00:00 11.7 30 Oeste 42 Oeste 0.2 -- -- 80
2020-11-07 13:00:00 11.7 23 Sudoeste 32 Oeste 0.4 -- -- 83
2020-11-07 12:00:00 10.4 14 Oeste 24 Sudoeste 0.4 -- -- 94
2020-11-07 11:00:00 10.4 19 Sur 24 Sur 0 -- -- 92
2020-11-07 10:00:00 9.6 10 Sur 23 Sur 0 -- -- 95
2020-11-07 09:00:00 8.9 14 Sur 23 Sur 0 -- -- 95
2020-11-07 08:00:00 8.7 13 Sur 18 Sur 0 -- -- 96
2020-11-07 07:00:00 8.9 5 Nordeste 27 Oeste 3.4 -- -- 94
2020-11-07 06:00:00 9 26 Oeste 98 Sudoeste 6.4 -- -- 93
2020-11-07 05:00:00 11.5 33 Sur 56 Sur 1.2 -- -- 94
2020-11-07 04:00:00 11.4 29 Sur 44 Sur 0.2 -- -- 94
2020-11-07 03:00:00 11.5 27 Sur 51 Sur 0.2 -- -- 93
2020-11-07 02:00:00 11.9 30 Sur 46 Sur 0 -- -- 88
2020-11-07 01:00:00 11.8 31 Sur 44 Sur 0 -- -- 87
2020-11-07 00:00:00 11.9 24 Sudoeste 44 Sur 0 -- -- 87
2020-11-06 23:00:00 12.2 29 Sur 44 Sur 0 -- -- 87
2020-11-06 22:00:00 12 27 Sur 42 Sur 0 -- -- 90
2020-11-06 21:00:00 12 36 Sur 49 Sur 0 -- -- 92
2020-11-06 20:00:00 12.1 38 Sur 58 Sur 0 -- -- 93
2020-11-06 19:00:00 12.3 41 Sur 55 Sudeste 0 -- -- 93
2020-11-06 18:00:00 12.3 42 Sudeste 57 Sudeste 0 -- -- 94
2020-11-06 17:00:00 12.8 30 Sudeste 49 Sudeste 0 -- -- 91
2020-11-06 16:00:00 12.9 36 Sudeste 50 Sudeste 0 -- -- 92
2020-11-06 15:00:00 12.7 34 Sudeste 55 Sudeste 0 -- -- 91
2020-11-06 14:00:00 12.8 37 Sudeste 50 Sudeste 0 -- -- 89
2020-11-06 13:00:00 13.7 31 Sudeste 49 Sudeste 0 -- -- 87
2020-11-06 12:00:00 12.4 29 Sudeste 52 Sudeste 0 -- -- 89
2020-11-06 11:00:00 12.1 35 Sudeste 50 Sudeste 0 -- -- 89
2020-11-06 10:00:00 11.2 36 Sudeste 47 Sudeste 0 -- -- 92
2020-11-06 09:00:00 10.3 31 Sudeste 47 Sudeste 0 -- -- 94
2020-11-06 08:00:00 9.9 27 Sudeste 50 Sudeste 0 -- -- 95
2020-11-06 07:00:00 10 33 Sudeste 43 Sudeste 0 -- -- 94
2020-11-06 06:00:00 9.9 22 Sudeste 37 Sudeste 0 -- -- 95
2020-11-06 05:00:00 9.5 27 Sudeste 40 Sudeste 0 -- -- 95
2020-11-06 04:00:00 9.4 26 Sudeste 43 Sudeste 0 -- -- 95
2020-11-06 03:00:00 9.4 18 Sudeste 36 Sur 0 -- -- 94
2020-11-06 02:00:00 9.2 17 Sur 44 Sudeste 0 -- -- 94
2020-11-06 01:00:00 8.9 28 Sudeste 48 Sudeste 0 -- -- 95
2020-11-06 00:00:00 8.9 33 Sudeste 48 Sudeste 0 -- -- 94
2020-11-05 23:00:00 9.2 33 Sudeste 46 Sudeste 0.2 -- -- 94
2020-11-05 22:00:00 8.9 31 Sudeste 46 Sudeste 0 -- -- 96
2020-11-05 21:00:00 8.5 37 Sudeste 51 Sudeste 1.6 -- -- 95
2020-11-05 20:00:00 8.2 34 Sudeste 45 Este 1 -- -- 97
2020-11-05 19:00:00 8.5 37 Sudeste 46 Sudeste 0 -- -- 95
2020-11-05 18:00:00 8 24 Sudeste 41 Sudeste 0 -- -- 96
2020-11-05 17:00:00 8.1 35 Sudeste 54 Este 0 -- -- 94
2020-11-05 16:00:00 8.7 21 Este 35 Este 0 -- -- 90
2020-11-05 15:00:00 9 20 Sudeste 40 Sudeste 0 -- -- 87
2020-11-05 14:00:00 8.9 30 Sudeste 44 Sudeste 0 -- -- 89
2020-11-05 13:00:00 9.3 30 Sudeste 47 Sudeste 0 -- -- 85
2020-11-05 12:00:00 9.6 38 Sudeste 52 Sudeste 0 -- -- 80
2020-11-05 11:00:00 9.5 34 Sudeste 48 Sudeste 0 -- -- 79
2020-11-05 10:00:00 8.7 27 Sudeste 42 Sur 0 -- -- 83
2020-11-05 09:00:00 6.5 19 Sur 45 Sudeste 0.2 -- -- 92
2020-11-05 08:00:00 5.8 19 Sudeste 33 Este 0 -- -- 95
2020-11-05 07:00:00 6 17 Sudeste 34 Sur 0 -- -- 94
2020-11-05 06:00:00 6.2 16 Sudeste 30 Sudeste 0 -- -- 93
2020-11-05 05:00:00 6.1 8 Sudeste 36 Sudeste 0 -- -- 93
2020-11-05 04:00:00 6 24 Este 39 Sudeste 0 -- -- 93
2020-11-05 03:00:00 6 22 Sudeste 32 Sudeste 0 -- -- 94
2020-11-05 02:00:00 5.3 16 Sudeste 28 Sudeste 0 -- -- 96
2020-11-05 01:00:00 5.2 11 Sur 26 Sudeste 0 -- -- 95
2020-11-05 00:00:00 5.1 8 Sur 42 Este 0 -- -- 95
2020-11-04 23:00:00 4.8 31 Sudeste 44 Sudeste 0 -- -- 96
2020-11-04 22:00:00 4.8 9 Sudeste 19 Este 0.2 -- -- 94
2020-11-04 21:00:00 4.7 4 Sudeste 15 Este 0 -- -- 93
2020-11-04 20:00:00 4.7 11 Este 17 Este 0 -- -- 93
2020-11-04 19:00:00 4.6 11 Este 27 Este 0.2 -- -- 92
2020-11-04 18:00:00 4.5 3 Sudeste 23 Este 0.6 -- -- 93
2020-11-04 17:00:00 4.9 21 Este 32 Este 0 -- -- 87
2020-11-04 16:00:00 5.8 16 Sudeste 28 Este 0 -- -- 80
2020-11-04 15:00:00 7 21 Este 27 Este 0 -- -- 74
2020-11-04 14:00:00 7.1 12 Sudeste 19 Sudeste 0 -- -- 76
2020-11-04 13:00:00 6.5 8 Sur 14 Sur 0 -- -- 81
2020-11-04 12:00:00 6 5 Este 19 Este 0 -- -- 71
2020-11-04 11:00:00 5.2 12 Nordeste 21 Nordeste 0 -- -- 73
2020-11-04 10:00:00 4.9 13 Nordeste 23 Nordeste 0 -- -- 75
2020-11-04 09:00:00 4.3 11 Nordeste 36 Nordeste 0 -- -- 75
2020-11-04 08:00:00 3.6 27 Nordeste 38 Nordeste 0 -- -- 80
2020-11-04 07:00:00 3.6 27 Nordeste 40 Nordeste 0 -- -- 81
2020-11-04 06:00:00 3.7 31 Nordeste 42 Nordeste 0 -- -- 80
2020-11-04 05:00:00 3.9 33 Nordeste 45 Nordeste 0 -- -- 79
2020-11-04 04:00:00 4 35 Nordeste 45 Nordeste 0 -- -- 79
2020-11-04 03:00:00 4.2 33 Nordeste 45 Nordeste 0 -- -- 82
2020-11-04 02:00:00 4.3 28 Nordeste 40 Nordeste 0 -- -- 85
2020-11-04 01:00:00 4.7 33 Nordeste 43 Nordeste 0 -- -- 84
2020-11-04 00:00:00 4.9 34 Nordeste 46 Nordeste 0 -- -- 85
2020-11-03 23:00:00 5.2 35 Nordeste 46 Nordeste 0 -- -- 84
2020-11-03 22:00:00 5.6 28 Norte 40 Nordeste 0 -- -- 84
2020-11-03 21:00:00 6 31 Nordeste 51 Nordeste 0 -- -- 84
2020-11-03 20:00:00 6.5 29 Nordeste 48 Nordeste 0 -- -- 84
2020-11-03 19:00:00 7.3 25 Norte 44 Norte 0 -- -- 86
2020-11-03 18:00:00 7.8 27 Norte 42 Nordeste 0 -- -- 84
2020-11-03 17:00:00 7.8 27 Norte 40 Nordeste 0 -- -- 86
2020-11-03 16:00:00 7.5 32 Nordeste 48 Nordeste 0 -- -- 90
2020-11-03 15:00:00 7.6 30 Nordeste 46 Nordeste 0.2 -- -- 87
2020-11-03 14:00:00 7.9 36 Nordeste 48 Nordeste 0 -- -- 86
2020-11-03 13:00:00 7.8 35 Nordeste 51 Nordeste 0 -- -- 89
2020-11-03 12:00:00 8.2 38 Nordeste 51 Nordeste 0 -- -- 90
2020-11-03 11:00:00 8.3 33 Nordeste 57 Este 0.6 -- -- 91
2020-11-03 10:00:00 8.6 26 Nordeste 36 Nordeste 0.4 -- -- 93
2020-11-03 09:00:00 8.9 28 Nordeste 39 Nordeste 0.4 -- -- 92
2020-11-03 08:00:00 9.4 23 Nordeste 35 Nordeste 0 -- -- 93
2020-11-03 07:00:00 10.2 19 Nordeste 27 Nordeste 0 -- -- 94
2020-11-03 06:00:00 9.4 13 Nordeste 17 Nordeste 0 -- -- 95
2020-11-03 05:00:00 9.3 8 Nordeste 11 Nordeste 0 -- -- 93
2020-11-03 04:00:00 8.7 6 Nordeste 8 Nordeste 0 -- -- 94
2020-11-03 03:00:00 8.9 0 Calma 12 Nordeste 0 -- -- 92
2020-11-03 02:00:00 9.1 6 Nordeste 10 Nordeste 0 -- -- 92
2020-11-03 01:00:00 9.2 2 Nordeste 4 Sudeste 0 -- -- 90
2020-11-03 00:00:00 10 0 Calma 6 Norte 0 -- -- 87
2020-11-02 23:00:00 10.1 6 Nordeste 10 Norte 0 -- -- 87
2020-11-02 22:00:00 10.8 0 Calma 7 Norte 0 -- -- 85
2020-11-02 21:00:00 10.5 7 Norte 11 Nordeste 0 -- -- 84
2020-11-02 20:00:00 12.4 11 Nordeste 14 Nordeste 0 -- -- 79
2020-11-02 19:00:00 13.6 8 Norte 9 Norte 0 -- -- 74
2020-11-02 18:00:00 14.5 5 Norte 10 Norte 0 -- -- 70
2020-11-02 17:00:00 16.6 7 Noroeste 19 Norte 0 -- -- 64
2020-11-02 16:00:00 17.5 14 Norte 31 Norte 0 -- -- 61
2020-11-02 15:00:00 18.8 17 Noroeste 31 Noroeste 0 -- -- 58
2020-11-02 14:00:00 19.1 17 Noroeste 30 Noroeste 0 -- -- 58
2020-11-02 13:00:00 16.8 13 Noroeste 27 Noroeste 0 -- -- 69
2020-11-02 12:00:00 15.3 17 Noroeste 29 Noroeste 0 -- -- 76
2020-11-02 11:00:00 14.4 14 Noroeste 26 Noroeste 0 -- -- 81
2020-11-02 10:00:00 13.7 6 Norte 12 Noroeste 0 -- -- 77
2020-11-02 09:00:00 9.6 4 Nordeste 6 Nordeste 0 -- -- 90
2020-11-02 08:00:00 7.8 4 Nordeste 6 Nordeste 0 -- -- 95
2020-11-02 07:00:00 7.2 3 Nordeste 9 Nordeste 0 -- -- 98
2020-11-02 06:00:00 6.8 6 Norte 9 Nordeste 0 -- -- 95
2020-11-02 05:00:00 7.6 0 Calma 3 Sudoeste 0 -- -- 95
2020-11-02 04:00:00 8.5 0 Calma 5 Nordeste 0 -- -- 90
2020-11-02 03:00:00 9.3 0 Calma 4 Nordeste 0 -- -- 92
2020-11-02 02:00:00 8.7 0 Calma 4 Sudeste 0 -- -- 93
2020-11-02 01:00:00 8.8 2 Sur 5 Norte 0 -- -- 91
2020-11-02 00:00:00 8.4 3 Nordeste 7 Sudeste 0 -- -- 89
2020-11-01 23:00:00 11.2 6 Norte 10 Norte 0 -- -- 83
2020-11-01 22:00:00 11.5 6 Norte 9 Noroeste 0 -- -- 81
2020-11-01 21:00:00 12.1 7 Norte 9 Norte 0 -- -- 78
2020-11-01 20:00:00 13 0 Calma 9 Norte 0 -- -- 74
2020-11-01 19:00:00 14.3 7 Norte 14 Noroeste 0 -- -- 69
2020-11-01 18:00:00 17 9 Noroeste 19 Noroeste 0 -- -- 61
2020-11-01 17:00:00 18.4 11 Noroeste 23 Noroeste 0 -- -- 58
2020-11-01 16:00:00 18.9 17 Noroeste 27 Noroeste 0 -- -- 55
2020-11-01 15:00:00 19.9 17 Noroeste 29 Oeste 0 -- -- 52
2020-11-01 14:00:00 19 16 Noroeste 32 Oeste 0 -- -- 56
2020-11-01 13:00:00 18 17 Oeste 26 Oeste 0 -- -- 63
2020-11-01 12:00:00 16.5 16 Noroeste 27 Noroeste 0 -- -- 68
2020-11-01 11:00:00 14.3 7 Noroeste 17 Noroeste 0 -- -- 78
2020-11-01 10:00:00 12.8 4 Norte 12 Oeste 0 -- -- 82
2020-11-01 09:00:00 10.2 0 Calma 7 Noroeste 0 -- -- 89
2020-11-01 08:00:00 6 2 Oeste 9 Norte 0 -- -- 96
2020-11-01 07:00:00 6.5 3 Nordeste 12 Norte 0 -- -- 94
2020-11-01 06:00:00 8.3 8 Nordeste 10 Nordeste 0 -- -- 92
2020-11-01 05:00:00 7.8 6 Norte 10 Norte 0 -- -- 92
2020-11-01 04:00:00 7.3 0 Calma 6 Oeste 0 -- -- 93
2020-11-01 03:00:00 8.8 0 Calma 6 Noroeste 0 -- -- 89
2020-11-01 02:00:00 9.4 2 Norte 12 Nordeste 0 -- -- 85
2020-11-01 01:00:00 8.7 6 Nordeste 10 Nordeste 0 -- -- 85
2020-11-01 00:00:00 10 8 Norte 11 Norte 0 -- -- 81
2020-10-31 23:00:00 10.3 6 Norte 9 Norte 0 -- -- 79
2020-10-31 22:00:00 10.2 2 Sudoeste 12 Norte 0 -- -- 76
2020-10-31 21:00:00 11.1 7 Norte 14 Norte 0 -- -- 74
2020-10-31 20:00:00 12.1 9 Norte 12 Norte 0 -- -- 68
2020-10-31 19:00:00 13.5 5 Norte 16 Noroeste 0 -- -- 63
2020-10-31 18:00:00 16.5 8 Noroeste 31 Noroeste 0 -- -- 52
2020-10-31 17:00:00 18.4 23 Norte 37 Noroeste 0 -- -- 46
2020-10-31 16:00:00 19.6 18 Noroeste 36 Oeste 0 -- -- 45
2020-10-31 15:00:00 19.5 21 Noroeste 33 Noroeste 0 -- -- 44
2020-10-31 14:00:00 19.1 16 Noroeste 30 Norte 0 -- -- 47
2020-10-31 13:00:00 17.2 10 Noroeste 26 Noroeste 0 -- -- 58
2020-10-31 12:00:00 15.1 10 Noroeste 17 Noroeste 0 -- -- 63
2020-10-31 11:00:00 13.5 7 Norte 12 Noroeste 0 -- -- 63
2020-10-31 10:00:00 11.2 0 Calma 8 Norte 0 -- -- 74
2020-10-31 09:00:00 7.1 4 Nordeste 11 Norte 0 -- -- 85
2020-10-31 08:00:00 3.7 4 Norte 15 Nordeste 0 -- -- 89
2020-10-31 07:00:00 3.5 9 Nordeste 13 Nordeste 0 -- -- 92
2020-10-31 06:00:00 2.6 3 Nordeste 13 Norte 0 -- -- 92
2020-10-31 05:00:00 2.4 2 Norte 12 Nordeste 0 -- -- 91
2020-10-31 04:00:00 4.6 9 Nordeste 12 Nordeste 0 -- -- 90
2020-10-31 03:00:00 4.3 9 Nordeste 12 Nordeste 0 -- -- 94
2020-10-31 02:00:00 5.2 3 Nordeste 8 Norte 0 -- -- 90
2020-10-31 01:00:00 6.2 3 Nordeste 7 Norte 0 -- -- 82
2020-10-31 00:00:00 7.6 6 Nordeste 9 Norte 0 -- -- 79
2020-10-30 23:00:00 7.3 6 Nordeste 12 Norte 0 -- -- 79
2020-10-30 22:00:00 8.5 0 Calma 13 Norte 0 -- -- 73
2020-10-30 21:00:00 11.2 4 Nordeste 9 Norte 0 -- -- 64
2020-10-30 20:00:00 12.4 3 Nordeste 8 Nordeste 0 -- -- 61
2020-10-30 19:00:00 13.6 3 Norte 9 Noroeste 0 -- -- 58
2020-10-30 18:00:00 16.7 4 Norte 14 Noroeste 0 -- -- 49
2020-10-30 17:00:00 18.4 10 Noroeste 17 Noroeste 0 -- -- 41
2020-10-30 16:00:00 19.6 10 Noroeste 19 Noroeste 0 -- -- 38
2020-10-30 15:00:00 19.8 10 Noroeste 20 Oeste 0 -- -- 37
2020-10-30 14:00:00 17.5 10 Noroeste 18 Norte 0 -- -- 50
2020-10-30 13:00:00 15.3 10 Noroeste 13 Noroeste 0 -- -- 58
2020-10-30 12:00:00 10.2 4 Nordeste 8 Norte 0 -- -- 95
2020-10-30 11:00:00 6.9 4 Norte 7 Norte 0 -- -- 98
2020-10-30 10:00:00 4 5 Norte 12 Nordeste 0 -- -- 98
2020-10-30 09:00:00 1.9 10 Nordeste 13 Nordeste 0.2 -- -- 99
2020-10-30 08:00:00 0.1 12 Nordeste 16 Norte 0 -- -- 98
2020-10-30 07:00:00 0.5 6 Nordeste 12 Nordeste 0 -- -- 98
2020-10-30 06:00:00 0.6 10 Nordeste 15 Nordeste 0 -- -- 98
2020-10-30 05:00:00 1 6 Nordeste 8 Nordeste 0 -- -- 96
2020-10-30 04:00:00 2.9 4 Norte 6 Norte 0 -- -- 97
2020-10-30 03:00:00 4.2 0 Calma 2 Sudeste 0 -- -- 98
2020-10-30 02:00:00 4.4 0 Calma 8 Nordeste 0 -- -- 96
2020-10-30 01:00:00 4.7 3 Nordeste 8 Norte 0 -- -- 94
2020-10-30 00:00:00 5.5 2 Norte 9 Este 0 -- -- 95